createdAt,value
2019-04-25T00:00:36.535Z,97.50
2019-04-25T00:03:07.657Z,97.60
2019-04-25T00:05:38.745Z,97.80
2019-04-25T00:08:09.115Z,98.30
2019-04-25T00:10:39.705Z,97.90
2019-04-25T00:13:11.759Z,98.30
2019-04-25T00:15:44.603Z,98.20
2019-04-25T00:18:14.446Z,98.40
2019-04-25T00:20:49.253Z,98.50
2019-04-25T00:23:19.648Z,98.60
2019-04-25T00:26:05.398Z,98.40
2019-04-25T00:28:35.724Z,98.60
2019-04-25T00:31:06.908Z,98.60
2019-04-25T00:33:37.309Z,98.60
2019-04-25T00:36:07.808Z,98.70
2019-04-25T00:38:38.142Z,98.50
2019-04-25T00:41:08.424Z,98.50
2019-04-25T00:43:38.793Z,98.50
2019-04-25T00:46:11.298Z,98.70
2019-04-25T00:48:43.170Z,98.50
2019-04-25T00:51:13.831Z,98.50
2019-04-25T00:53:44.644Z,98.50
2019-04-25T00:56:15.324Z,98.50
2019-04-25T00:59:14.021Z,98.70
2019-04-25T01:01:53.895Z,98.40
2019-04-25T01:04:26.212Z,98.50
2019-04-25T01:06:56.553Z,98.40
2019-04-25T01:09:28.157Z,98.70
2019-04-25T01:11:58.509Z,98.80
2019-04-25T01:14:28.862Z,98.50
2019-04-25T01:16:59.240Z,98.90
2019-04-25T01:19:29.545Z,99.00
2019-04-25T01:21:59.912Z,99.00
2019-04-25T01:24:30.249Z,99.50
2019-04-25T01:27:00.794Z,99.30
2019-04-25T01:29:31.065Z,99.30
2019-04-25T01:32:03.244Z,99.70
2019-04-25T01:34:58.592Z,99.90
2019-04-25T01:37:51.713Z,99.90
2019-04-25T01:40:41.113Z,99.90
2019-04-25T01:43:43.645Z,99.90
2019-04-25T01:46:16.209Z,99.90
2019-04-25T01:48:46.584Z,99.90
2019-04-25T01:51:17.103Z,99.90
2019-04-25T01:53:48.993Z,99.90
2019-04-25T01:56:19.512Z,99.90
2019-04-25T01:58:49.888Z,99.90
2019-04-25T02:01:20.785Z,99.90
2019-04-25T02:03:51.285Z,99.90
2019-04-25T02:06:23.179Z,99.90
2019-04-25T02:08:55.257Z,99.90
2019-04-25T02:11:43.948Z,99.90
2019-04-25T02:14:14.644Z,99.90
2019-04-25T02:16:45.115Z,99.90
2019-04-25T02:19:15.466Z,99.90
2019-04-25T02:21:46.021Z,99.90
2019-04-25T02:24:16.312Z,99.90
2019-04-25T02:26:46.593Z,99.90
2019-04-25T02:29:16.939Z,99.90
2019-04-25T02:31:47.321Z,99.90
2019-04-25T02:34:18.230Z,99.90
2019-04-25T02:36:48.636Z,99.90
2019-04-25T02:39:20.786Z,99.90
2019-04-25T02:41:51.205Z,99.90
2019-04-25T02:44:21.627Z,99.90
2019-04-25T02:47:08.150Z,99.90
2019-04-25T02:50:09.229Z,99.90
2019-04-25T02:52:44.415Z,99.90
2019-04-25T02:55:28.131Z,99.90
2019-04-25T02:57:46.882Z,99.90
2019-04-25T03:00:46.065Z,99.90
2019-04-25T03:03:02.600Z,99.90
2019-04-25T03:05:35.458Z,99.90
2019-04-25T03:08:09.928Z,99.90
2019-04-25T03:10:37.610Z,99.90
2019-04-25T03:13:11.493Z,99.90
2019-04-25T03:15:40.141Z,99.90
2019-04-25T03:18:13.059Z,99.90
2019-04-25T03:20:49.297Z,99.90
2019-04-25T03:23:42.868Z,99.90
2019-04-25T03:26:14.018Z,99.90
2019-04-25T03:28:44.493Z,99.90
2019-04-25T03:31:22.040Z,99.90
2019-04-25T03:33:46.820Z,99.90
2019-04-25T03:36:17.322Z,99.90
2019-04-25T03:38:47.574Z,99.90
2019-04-25T03:41:17.861Z,99.90
2019-04-25T03:43:48.134Z,99.90
2019-04-25T03:46:19.329Z,99.90
2019-04-25T03:48:49.648Z,99.90
2019-04-25T03:51:19.913Z,99.90
2019-04-25T03:53:50.341Z,99.90
2019-04-25T03:56:20.682Z,99.90
2019-04-25T03:58:52.124Z,99.90
2019-04-25T04:01:24.151Z,99.90
2019-04-25T04:03:54.418Z,99.90
2019-04-25T04:06:24.902Z,99.90
2019-04-25T04:08:55.278Z,99.90
2019-04-25T04:11:25.636Z,99.90
2019-04-25T04:13:56.163Z,99.90
2019-04-25T04:16:30.210Z,99.90
2019-04-25T04:19:00.583Z,99.90
2019-04-25T04:21:49.529Z,99.90
2019-04-25T04:24:25.954Z,99.90
2019-04-25T04:27:18.498Z,99.90
2019-04-25T04:29:48.837Z,99.90
2019-04-25T04:32:19.097Z,99.90
2019-04-25T04:34:49.492Z,99.90
2019-04-25T04:37:19.765Z,99.90
2019-04-25T04:39:50.070Z,99.90
2019-04-25T04:42:20.387Z,99.90
2019-04-25T04:44:50.677Z,99.90
2019-04-25T04:47:21.012Z,99.90
2019-04-25T04:49:51.340Z,99.90
2019-04-25T04:52:24.060Z,99.90
2019-04-25T04:55:03.764Z,99.90
2019-04-25T04:57:31.944Z,99.90
2019-04-25T04:59:57.663Z,99.90
2019-04-25T05:02:45.772Z,99.90
2019-04-25T05:05:34.426Z,99.90
2019-04-25T05:08:11.063Z,99.90
2019-04-25T05:10:43.071Z,99.90
2019-04-25T05:13:15.389Z,99.90
2019-04-25T05:15:45.623Z,99.90
2019-04-25T05:18:31.593Z,99.90
2019-04-25T05:20:47.921Z,99.90
2019-04-25T05:23:18.861Z,99.90
2019-04-25T05:25:49.420Z,99.90
2019-04-25T05:28:19.681Z,99.90
2019-04-25T05:31:16.806Z,99.90
2019-04-25T05:33:46.877Z,99.90
2019-04-25T05:36:17.613Z,99.90
2019-04-25T05:38:48.877Z,99.90
2019-04-25T05:41:46.965Z,99.90
2019-04-25T05:44:17.612Z,99.90
2019-04-25T05:46:47.890Z,99.90
2019-04-25T05:49:19.089Z,99.90
2019-04-25T05:51:49.724Z,99.90
2019-04-25T05:54:20.599Z,99.90
2019-04-25T05:56:51.046Z,99.90
2019-04-25T05:59:21.897Z,99.90
2019-04-25T06:01:53.811Z,99.90
2019-04-25T06:04:25.660Z,99.90
2019-04-25T06:06:56.298Z,99.90
2019-04-25T06:09:54.721Z,99.90
2019-04-25T06:12:44.238Z,99.90
2019-04-25T06:15:15.314Z,99.90
2019-04-25T06:18:03.911Z,99.90
2019-04-25T06:20:36.633Z,99.90
2019-04-25T06:23:41.119Z,99.90
2019-04-25T06:26:22.414Z,99.90
2019-04-25T06:28:53.810Z,99.90
2019-04-25T06:31:17.326Z,99.90
2019-04-25T06:33:47.795Z,99.90
2019-04-25T06:36:20.310Z,99.90
2019-04-25T06:38:51.364Z,99.90
2019-04-25T06:41:21.974Z,99.80
2019-04-25T06:43:54.190Z,99.80
2019-04-25T06:46:43.976Z,99.90
2019-04-25T06:49:24.139Z,99.50
2019-04-25T06:51:54.589Z,99.40
2019-04-25T06:54:26.746Z,99.10
2019-04-25T06:56:57.369Z,99.10
2019-04-25T06:59:28.848Z,99.30
2019-04-25T07:01:59.480Z,99.10
2019-04-25T07:04:29.785Z,98.80
2019-04-25T07:07:09.718Z,98.20
2019-04-25T07:09:34.514Z,99.10
2019-04-25T07:12:04.136Z,98.50
2019-04-25T07:14:36.936Z,98.20
2019-04-25T07:17:06.617Z,98.40
2019-04-25T07:19:36.967Z,98.80
2019-04-25T07:22:08.813Z,98.90
2019-04-25T07:31:42.054Z,98.90
2019-04-25T07:34:25.010Z,99.20
2019-04-25T07:36:55.297Z,99.60
2019-04-25T07:39:25.746Z,99.50
2019-04-25T07:41:56.109Z,99.10
2019-04-25T07:44:38.159Z,98.10
2019-04-25T07:46:58.568Z,98.70
2019-04-25T07:49:28.895Z,97.70
2019-04-25T07:51:59.263Z,97.80
2019-04-25T07:54:29.637Z,97.20
2019-04-25T07:57:00.034Z,97.10
2019-04-25T07:59:30.986Z,96.60
2019-04-25T08:02:03.281Z,97.10
2019-04-25T08:04:35.730Z,96.60
2019-04-25T08:07:06.137Z,96.20
2019-04-25T08:09:37.077Z,96.20
2019-04-25T08:12:08.398Z,95.50
2019-04-25T08:14:46.446Z,95.60
2019-04-25T08:17:19.091Z,94.70
2019-04-25T08:19:49.708Z,94.40
2019-04-25T08:22:20.197Z,94.80
2019-04-25T08:24:50.721Z,94.90
2019-04-25T08:27:21.084Z,94.80
2019-04-25T08:29:51.533Z,94.90
2019-04-25T08:32:22.010Z,94.60
2019-04-25T08:34:54.130Z,95.80
2019-04-25T08:37:24.365Z,95.20
2019-04-25T08:39:54.804Z,95.80
2019-04-25T08:42:25.141Z,96.30
2019-04-25T08:44:55.435Z,95.50
2019-04-25T08:47:25.804Z,95.50
2019-04-25T08:50:08.605Z,95.60
2019-04-25T08:52:38.924Z,96.00
2019-04-25T08:55:27.213Z,96.10
2019-04-25T08:58:19.154Z,95.80
2019-04-25T09:01:05.239Z,96.10
2019-04-25T09:03:42.713Z,96.00
2019-04-25T09:06:14.389Z,95.40
2019-04-25T09:08:46.542Z,94.80
2019-04-25T09:11:17.405Z,95.00
2019-04-25T09:13:47.752Z,95.70
2019-04-25T09:16:18.141Z,94.70
2019-04-25T09:18:48.487Z,94.70
2019-04-25T09:21:18.842Z,94.10
2019-04-25T09:23:49.184Z,94.80
2019-04-25T09:26:19.693Z,94.70
2019-04-25T09:28:50.103Z,94.40
2019-04-25T09:31:20.481Z,94.40
2019-04-25T09:33:54.158Z,94.20
2019-04-25T09:36:25.038Z,93.80
2019-04-25T09:38:57.884Z,93.80
2019-04-25T09:41:28.174Z,94.10
2019-04-25T09:44:02.049Z,94.20
2019-04-25T09:46:36.323Z,93.60
2019-04-25T09:49:15.696Z,94.10
2019-04-25T09:51:53.483Z,93.60
2019-04-25T09:54:48.599Z,94.50
2019-04-25T09:57:46.192Z,93.90
2019-04-25T10:00:36.544Z,94.40
2019-04-25T10:03:07.516Z,93.40
2019-04-25T10:05:38.473Z,93.70
2019-04-25T10:08:09.214Z,93.30
2019-04-25T10:10:40.448Z,93.70
2019-04-25T10:13:11.220Z,92.30
2019-04-25T10:15:57.612Z,93.30
2019-04-25T10:18:28.043Z,92.70
2019-04-25T10:20:58.548Z,92.40
2019-04-25T10:23:28.988Z,92.80
2019-04-25T10:25:59.352Z,92.70
2019-04-25T10:28:29.889Z,92.30
2019-04-25T10:31:00.262Z,92.10
2019-04-25T10:33:30.631Z,93.10
2019-04-25T10:36:01.318Z,92.80
2019-04-25T10:38:33.624Z,92.40
2019-04-25T10:41:04.305Z,92.40
2019-04-25T10:43:35.786Z,92.40
2019-04-25T10:46:06.715Z,92.80
2019-04-25T10:48:37.328Z,92.10
2019-04-25T10:51:07.977Z,92.20
2019-04-25T10:53:38.463Z,91.90
2019-04-25T10:56:08.890Z,91.70
2019-04-25T10:58:40.081Z,92.10
2019-04-25T11:01:10.820Z,91.90
2019-04-25T11:04:04.564Z,91.40
2019-04-25T11:06:35.245Z,91.90
2019-04-25T11:09:07.220Z,91.50
2019-04-25T11:11:37.714Z,91.10
2019-04-25T11:14:08.192Z,91.00
2019-04-25T11:16:38.502Z,91.40
2019-04-25T11:19:08.985Z,91.50
2019-04-25T11:21:39.317Z,91.50
2019-04-25T11:24:09.793Z,91.20
2019-04-25T11:26:40.573Z,91.40
2019-04-25T11:29:13.292Z,90.80
2019-04-25T11:31:48.983Z,91.40
2019-04-25T11:34:20.560Z,91.20
2019-04-25T11:36:50.939Z,90.70
2019-04-25T11:39:43.257Z,90.70
2019-04-25T11:42:15.205Z,91.40
2019-04-25T11:44:46.130Z,90.90
2019-04-25T11:47:16.537Z,91.10
2019-04-25T11:49:47.851Z,91.20
2019-04-25T11:52:27.299Z,90.40
2019-04-25T11:54:54.476Z,90.90
2019-04-25T11:57:25.021Z,90.80
2019-04-25T11:59:55.830Z,90.80
2019-04-25T12:02:27.851Z,91.00
2019-04-25T12:04:58.724Z,91.20
2019-04-25T12:07:29.085Z,90.80
2019-04-25T12:09:59.688Z,90.70
2019-04-25T12:12:30.149Z,90.10
2019-04-25T12:15:00.529Z,90.10
2019-04-25T12:17:30.901Z,89.10
2019-04-25T12:20:01.352Z,89.70
2019-04-25T12:22:31.702Z,90.00
2019-04-25T12:25:02.043Z,90.00
2019-04-25T12:27:32.429Z,89.90
2019-04-25T12:30:05.130Z,90.00
2019-04-25T12:32:35.258Z,90.00
2019-04-25T12:35:07.201Z,87.80
2019-04-25T12:37:37.557Z,86.80
2019-04-25T12:40:09.496Z,86.70
2019-04-25T12:42:39.867Z,86.00
2019-04-25T12:45:34.210Z,85.70
2019-04-25T12:48:04.813Z,85.90
2019-04-25T12:50:35.143Z,86.70
2019-04-25T12:53:05.611Z,85.70
2019-04-25T12:55:36.159Z,85.60
2019-04-25T12:58:06.801Z,86.50
2019-04-25T13:00:47.578Z,85.20
2019-04-25T13:03:09.208Z,85.90
2019-04-25T13:05:39.604Z,84.90
2019-04-25T13:08:09.959Z,83.90
2019-04-25T13:10:44.675Z,83.90
2019-04-25T13:13:16.300Z,84.00
2019-04-25T13:15:47.022Z,84.20
2019-04-25T13:18:17.864Z,83.40
2019-04-25T13:20:48.170Z,82.60
2019-04-25T13:23:18.630Z,80.10
2019-04-25T13:25:49.282Z,74.80
2019-04-25T13:28:31.097Z,71.90
2019-04-25T13:31:14.807Z,70.50
2019-04-25T13:34:01.706Z,67.40
2019-04-25T13:36:34.478Z,63.60
2019-04-25T13:39:10.468Z,63.50
2019-04-25T13:41:41.003Z,62.00
2019-04-25T13:44:11.375Z,63.60
2019-04-25T13:46:43.209Z,61.30
2019-04-25T13:49:14.891Z,61.20
2019-04-25T13:51:45.505Z,60.50
2019-04-25T13:54:15.931Z,62.30
2019-04-25T13:56:46.281Z,62.40
2019-04-25T13:59:16.791Z,61.40
2019-04-25T14:01:47.720Z,59.10
2019-04-25T14:04:18.153Z,58.20
2019-04-25T14:06:48.597Z,56.70
2019-04-25T14:09:21.379Z,57.20
2019-04-25T14:11:51.827Z,59.30
2019-04-25T14:14:22.676Z,59.80
2019-04-25T14:17:17.775Z,60.20
2019-04-25T14:20:15.816Z,60.50
2019-04-25T14:22:46.320Z,65.00
2019-04-25T14:25:18.606Z,66.60
2019-04-25T14:27:48.956Z,65.80
2019-04-25T14:30:22.282Z,67.40
2019-04-25T14:32:53.703Z,67.10
2019-04-25T14:35:24.188Z,65.10
2019-04-25T14:37:54.476Z,65.20
2019-04-25T14:40:26.081Z,65.30
2019-04-25T14:42:57.335Z,67.20
2019-04-25T14:45:40.350Z,70.10
2019-04-25T14:47:59.839Z,70.20
2019-04-25T14:50:30.301Z,68.80
2019-04-25T14:53:00.857Z,68.00
2019-04-25T14:55:39.967Z,65.40
2019-04-25T14:58:14.728Z,67.80
2019-04-25T15:00:46.542Z,65.20
2019-04-25T15:03:17.094Z,66.30
2019-04-25T15:05:47.470Z,69.90
2019-04-25T15:08:18.041Z,72.60
2019-04-25T15:10:48.604Z,74.10
2019-04-25T15:13:18.964Z,74.20
2019-04-25T15:15:49.364Z,76.00
2019-04-25T15:18:19.680Z,77.10
2019-04-25T15:20:50.056Z,76.70
2019-04-25T15:23:20.457Z,78.00
2019-04-25T15:25:50.825Z,78.50
2019-04-25T15:28:21.263Z,79.30
2019-04-25T15:30:51.665Z,79.90
2019-04-25T15:33:22.045Z,80.80
2019-04-25T15:36:14.537Z,81.40
2019-04-25T15:38:50.573Z,82.90
2019-04-25T15:41:37.486Z,83.30
2019-04-25T15:44:26.692Z,83.50
2019-04-25T15:46:58.645Z,83.00
2019-04-25T15:49:29.042Z,83.10
2019-04-25T15:51:59.457Z,83.00
2019-04-25T15:54:29.869Z,84.10
2019-04-25T15:57:00.249Z,84.70
2019-04-25T15:59:30.799Z,85.30
2019-04-25T16:02:07.949Z,83.90
2019-04-25T16:04:33.334Z,84.20
2019-04-25T16:07:03.824Z,84.00
2019-04-25T16:09:34.563Z,83.90
2019-04-25T16:12:06.157Z,84.10
2019-04-25T16:14:36.550Z,83.90
2019-04-25T16:17:07.048Z,84.60
2019-04-25T16:19:37.323Z,83.70
2019-04-25T16:22:07.782Z,84.80
2019-04-25T16:24:38.147Z,84.40
2019-04-25T16:27:08.621Z,83.60
2019-04-25T16:29:38.930Z,84.20
2019-04-25T16:32:20.518Z,83.60
2019-04-25T16:34:44.698Z,85.30
2019-04-25T16:37:15.208Z,84.30
2019-04-25T16:39:45.549Z,85.80
2019-04-25T16:42:15.981Z,87.00
2019-04-25T16:44:46.649Z,87.10
2019-04-25T16:47:18.884Z,87.70
2019-04-25T16:49:49.309Z,88.60
2019-04-25T16:52:20.156Z,88.60
2019-04-25T16:54:50.519Z,88.30
2019-04-25T16:57:20.926Z,89.30
2019-04-25T16:59:51.413Z,89.70
2019-04-25T17:02:32.875Z,90.00
2019-04-25T17:04:56.129Z,90.50
2019-04-25T17:07:26.680Z,90.50
2019-04-25T17:09:57.233Z,91.50
2019-04-25T17:12:28.382Z,91.50
2019-04-25T17:15:06.252Z,92.00
2019-04-25T17:17:45.538Z,92.20
2019-04-25T17:20:21.617Z,92.70
2019-04-25T17:22:52.049Z,93.00
2019-04-25T17:25:23.101Z,93.50
2019-04-25T17:27:53.521Z,94.10
2019-04-25T17:30:24.593Z,95.20
2019-04-25T17:33:16.430Z,95.50
2019-04-25T17:35:58.643Z,95.60
2019-04-25T17:38:44.207Z,96.40
2019-04-25T17:41:17.423Z,96.80
2019-04-25T17:43:48.331Z,97.70
2019-04-25T17:52:13.835Z,98.40
2019-04-25T17:58:14.930Z,98.80
2019-04-25T18:00:46.179Z,99.90
2019-04-25T18:03:21.364Z,99.80
2019-04-25T18:05:53.442Z,99.90
2019-04-25T18:26:13.033Z,99.90
2019-04-25T18:31:42.256Z,99.90
2019-04-25T18:34:18.735Z,99.90
2019-04-25T18:37:16.954Z,99.90
2019-04-25T18:40:05.762Z,99.90
2019-04-25T18:42:58.471Z,99.90
2019-04-25T18:45:31.765Z,99.90
2019-04-25T18:48:04.574Z,99.90
2019-04-25T18:50:37.461Z,99.90
2019-04-25T18:53:34.216Z,99.90
2019-04-25T18:56:24.370Z,99.90
2019-04-25T18:59:13.613Z,99.90
2019-04-25T19:02:05.117Z,99.90
2019-04-25T19:04:43.524Z,99.90
2019-04-25T19:07:22.408Z,99.90
2019-04-25T19:09:47.113Z,99.90
2019-04-25T19:12:18.062Z,99.90
2019-04-25T19:14:48.452Z,99.90
2019-04-25T19:17:18.733Z,99.90
2019-04-25T19:19:49.183Z,99.90
2019-04-25T19:22:19.679Z,99.90
2019-04-25T19:24:50.091Z,99.90
2019-04-25T19:27:24.038Z,99.90
2019-04-25T19:29:53.515Z,99.90
2019-04-25T19:32:24.356Z,99.90
2019-04-25T19:34:54.866Z,99.90
2019-04-25T19:37:25.449Z,99.90
2019-04-25T19:40:22.635Z,99.90
2019-04-25T19:42:57.004Z,99.90
2019-04-25T19:45:27.423Z,99.90
2019-04-25T19:47:57.862Z,99.90
2019-04-25T19:50:28.282Z,99.90
2019-04-25T19:52:58.690Z,99.90
2019-04-25T19:55:29.118Z,99.90
2019-04-25T19:57:59.581Z,99.90
2019-04-25T20:00:30.299Z,99.90
2019-04-25T20:03:22.571Z,99.90
2019-04-25T20:06:30.230Z,99.90
2019-04-25T20:09:10.624Z,99.90
2019-04-25T20:11:45.311Z,99.90
2019-04-25T20:14:15.754Z,99.90
2019-04-25T20:16:47.574Z,99.90
2019-04-25T20:19:17.990Z,99.90
2019-04-25T20:21:48.509Z,99.90
2019-04-25T20:24:18.928Z,99.90
2019-04-25T20:26:50.395Z,99.90
2019-04-25T20:29:20.919Z,99.90
2019-04-25T20:31:51.356Z,99.90
2019-04-25T20:34:21.715Z,99.90
2019-04-25T20:36:52.098Z,99.90
2019-04-25T20:39:22.501Z,99.90
2019-04-25T20:41:53.938Z,99.90
2019-04-25T20:44:24.717Z,99.90
2019-04-25T20:46:55.239Z,99.90
2019-04-25T20:49:25.689Z,99.90
2019-04-25T20:51:56.848Z,99.90
2019-04-25T20:54:27.358Z,99.90
2019-04-25T20:56:57.780Z,99.90
2019-04-25T20:59:28.344Z,99.90
2019-04-25T21:01:59.441Z,99.90
2019-04-25T21:04:44.975Z,99.90
2019-04-25T21:07:15.391Z,99.90
2019-04-25T21:09:45.765Z,99.90
2019-04-25T21:12:16.148Z,99.90
2019-04-25T21:15:11.385Z,99.90
2019-04-25T21:18:15.732Z,99.90
2019-04-25T21:20:46.108Z,99.90
2019-04-25T21:23:16.505Z,99.90
2019-04-25T21:25:46.825Z,99.90
2019-04-25T21:28:17.293Z,99.90
2019-04-25T21:30:47.657Z,99.90
2019-04-25T21:33:18.056Z,99.90
2019-04-25T21:35:48.723Z,99.90
2019-04-25T21:38:19.506Z,99.90
2019-04-25T21:41:11.644Z,99.90
2019-04-25T21:43:46.892Z,99.90
2019-04-25T21:46:17.595Z,99.90
2019-04-25T21:48:48.141Z,99.90
2019-04-25T21:51:34.181Z,99.90
2019-04-25T21:54:04.634Z,99.90
2019-04-25T21:56:35.302Z,99.90
2019-04-25T21:59:05.730Z,99.90
2019-04-25T22:01:39.534Z,99.90
2019-04-25T22:04:10.118Z,99.90
2019-04-25T22:06:40.808Z,99.90
2019-04-25T22:09:17.597Z,99.90
2019-04-25T22:11:48.187Z,99.90
2019-04-25T22:14:18.863Z,99.90
2019-04-25T22:16:50.613Z,99.90
2019-04-25T22:19:21.189Z,99.90
2019-04-25T22:21:52.014Z,99.90
2019-04-25T22:24:22.608Z,99.90
2019-04-25T22:26:56.437Z,99.90
2019-04-25T22:29:27.630Z,99.90
2019-04-25T22:32:07.758Z,99.90
2019-04-25T22:34:59.960Z,99.90
2019-04-25T22:37:30.322Z,99.90
2019-04-25T22:40:01.217Z,99.90
2019-04-25T22:42:31.924Z,99.90
2019-04-25T22:45:03.788Z,99.90
2019-04-25T22:47:34.321Z,99.90
2019-04-25T22:50:04.837Z,99.90
2019-04-25T22:52:35.504Z,99.90
2019-04-25T22:55:06.455Z,99.90
2019-04-25T22:57:37.204Z,99.90
2019-04-25T23:00:11.356Z,99.90
2019-04-25T23:02:54.068Z,99.90
2019-04-25T23:05:28.421Z,99.90
2019-04-25T23:07:59.341Z,99.90
2019-04-25T23:10:30.208Z,99.90
2019-04-25T23:13:00.576Z,99.90
2019-04-25T23:15:30.929Z,99.90
2019-04-25T23:18:01.350Z,99.90
2019-04-25T23:20:31.726Z,99.90
2019-04-25T23:23:04.167Z,99.90
2019-04-25T23:25:52.992Z,99.90
2019-04-25T23:28:25.937Z,99.90
2019-04-25T23:31:30.537Z,99.90
2019-04-25T23:34:01.446Z,99.90
2019-04-25T23:36:31.804Z,99.90
2019-04-25T23:39:02.161Z,99.90
2019-04-25T23:41:33.089Z,99.90
2019-04-25T23:44:03.500Z,99.90
2019-04-25T23:46:34.178Z,99.90
2019-04-25T23:49:05.013Z,99.90
2019-04-25T23:51:35.494Z,99.90
2019-04-25T23:54:07.456Z,99.90
2019-04-25T23:56:38.001Z,99.90
2019-04-25T23:59:09.849Z,99.90
